Time;durP1;ratioP1;P1;durP2;ratioP2;P2;SDS_P1;SDS_P2;PMS_P1;PMS_P2;Temp;Humidity;BMP_temperature;BMP_pressure;BME280_temperature;BME280_humidity;BME280_pressure;Samples;Min_cycle;Max_cycle;Signal;HPM_P1;HPM_P2
2023/05/29 00:00:13;;;;;;;19.05;3.30;;;;;;;9.47;86.66;102223.22;5003805;28;20193;-49
2023/05/29 00:02:39;;;;;;;17.17;3.47;;;;;;;9.46;87.29;102224.09;4996686;28;20181;-49
2023/05/29 00:05:05;;;;;;;16.50;4.15;;;;;;;9.23;87.17;102216.34;4996452;28;20197;-49
2023/05/29 00:07:32;;;;;;;13.98;3.00;;;;;;;9.38;87.51;102222.41;5000521;28;20676;-48
2023/05/29 00:09:58;;;;;;;15.93;3.30;;;;;;;9.47;87.39;102217.00;5001218;28;20263;-48
2023/05/29 00:12:24;;;;;;;15.13;2.95;;;;;;;9.51;87.51;102215.16;5001031;28;20308;-50
2023/05/29 00:14:49;;;;;;;16.92;3.28;;;;;;;9.43;87.10;102216.13;4997438;28;20649;-49
2023/05/29 00:17:15;;;;;;;13.20;3.25;;;;;;;9.16;87.29;102208.38;5000831;28;20185;-49
2023/05/29 00:19:43;;;;;;;21.67;3.60;;;;;;;9.12;87.04;102206.66;5002115;28;20213;-48
2023/05/29 00:22:08;;;;;;;16.00;3.13;;;;;;;9.33;87.18;102202.88;5002587;28;20181;-50
2023/05/29 00:24:34;;;;;;;13.43;2.65;;;;;;;9.31;87.26;102202.88;4997979;28;20213;-50
2023/05/29 00:27:01;;;;;;;21.15;4.05;;;;;;;9.37;87.42;102208.16;5000726;28;20180;-50
2023/05/29 00:29:27;;;;;;;15.50;2.72;;;;;;;9.13;87.44;102208.44;5005449;28;20168;-50
2023/05/29 00:31:54;;;;;;;21.63;4.38;;;;;;;9.27;87.37;102210.06;4996621;28;20251;-49
2023/05/29 00:34:23;;;;;;;16.92;3.60;;;;;;;9.32;87.40;102210.03;5001753;28;20184;-50
2023/05/29 00:36:51;;;;;;;15.35;3.58;;;;;;;9.01;87.55;102206.78;4996543;28;20268;-50
2023/05/29 00:39:16;;;;;;;17.67;3.67;;;;;;;8.98;88.13;102198.78;5002620;28;20659;-51
2023/05/29 00:41:42;;;;;;;18.70;3.53;;;;;;;9.01;88.84;102198.75;5013401;28;20177;-50
2023/05/29 00:44:07;;;;;;;15.25;3.40;;;;;;;8.91;88.84;102210.44;4997432;28;20219;-50
2023/05/29 00:46:35;;;;;;;18.00;3.47;;;;;;;8.74;89.41;102211.44;4999722;28;20242;-51
2023/05/29 00:49:01;;;;;;;10.93;3.35;;;;;;;8.92;89.83;102214.88;4998082;28;20186;-49
2023/05/29 00:51:29;;;;;;;21.98;4.35;;;;;;;8.96;89.67;102236.19;4998108;28;20706;-49
2023/05/29 00:53:54;;;;;;;17.35;3.50;;;;;;;8.70;89.75;102220.38;5002216;28;20255;-51
2023/05/29 00:56:21;;;;;;;16.02;3.15;;;;;;;8.74;90.25;102218.59;5000571;28;20275;-50
2023/05/29 00:58:52;;;;;;;20.00;3.25;;;;;;;8.61;90.42;102220.47;4999740;28;20588;-51
2023/05/29 01:01:18;;;;;;;16.65;2.83;;;;;;;8.51;90.85;102225.00;5007527;28;20284;-52
2023/05/29 01:03:45;;;;;;;15.60;3.33;;;;;;;8.70;91.00;102224.84;4994822;28;20657;-51
2023/05/29 01:06:11;;;;;;;20.27;3.28;;;;;;;8.49;90.88;102226.81;5003503;28;20259;-49
2023/05/29 01:08:37;;;;;;;16.50;3.75;;;;;;;8.61;91.22;102221.34;4998292;28;20256;-49
2023/05/29 01:11:42;;;;;;;16.23;3.75;;;;;;;8.62;91.12;102217.78;4995627;28;20212;-49
2023/05/29 01:14:13;;;;;;;20.80;3.35;;;;;;;8.47;90.84;102225.91;5001423;28;20279;-49
2023/05/29 01:16:51;;;;;;;18.85;3.60;;;;;;;8.38;91.38;102236.63;4997663;28;20173;-51
2023/05/29 01:19:38;;;;;;;16.25;3.65;;;;;;;8.33;91.96;102231.34;4997175;28;20188;-50
2023/05/29 01:22:11;;;;;;;12.32;3.03;;;;;;;8.51;92.02;102238.38;4997133;28;20230;-48
2023/05/29 01:25:07;;;;;;;19.13;3.75;;;;;;;8.32;91.69;102245.56;5001592;28;20228;-49
2023/05/29 01:27:35;;;;;;;12.05;3.22;;;;;;;8.17;92.02;102251.88;5003152;28;20197;-49
2023/05/29 01:30:02;;;;;;;16.85;3.33;;;;;;;8.11;92.89;102267.94;4997262;28;20185;-49
2023/05/29 01:32:29;;;;;;;19.42;4.03;;;;;;;8.19;93.08;102266.09;4998461;28;20654;-51
2023/05/29 01:34:55;;;;;;;20.27;4.45;;;;;;;8.17;93.28;102257.22;4995159;28;20705;-50
2023/05/29 01:37:21;;;;;;;15.80;3.65;;;;;;;8.31;93.39;102253.56;5000483;28;20197;-49
2023/05/29 01:39:46;;;;;;;17.83;4.10;;;;;;;8.29;92.93;102252.69;4999108;28;20333;-51
2023/05/29 01:42:12;;;;;;;17.45;3.88;;;;;;;8.26;92.43;102250.94;5000370;28;20181;-48
2023/05/29 01:44:38;;;;;;;19.67;3.85;;;;;;;8.11;92.85;102251.94;5003231;28;20236;-49
2023/05/29 01:47:05;;;;;;;15.80;3.70;;;;;;;8.04;92.68;102255.50;5001861;28;20419;-50
2023/05/29 01:49:31;;;;;;;20.45;3.47;;;;;;;8.16;92.94;102252.78;4995748;28;20200;-50
2023/05/29 01:51:58;;;;;;;14.82;3.63;;;;;;;8.07;93.29;102251.94;4998300;28;20207;-51
2023/05/29 01:54:24;;;;;;;16.40;3.60;;;;;;;8.10;93.29;102244.81;4999024;28;20239;-49
2023/05/29 01:56:51;;;;;;;17.83;3.42;;;;;;;8.00;93.03;102243.06;4998614;28;20260;-49
2023/05/29 01:59:17;;;;;;;14.23;3.65;;;;;;;8.02;93.42;102241.28;5003123;28;20181;-48
2023/05/29 02:01:43;;;;;;;18.23;4.00;;;;;;;7.99;93.60;102247.53;5001715;28;20529;-49
2023/05/29 02:04:08;;;;;;;15.55;3.65;;;;;;;8.04;93.86;102245.69;4993546;28;20165;-49
2023/05/29 02:06:34;;;;;;;19.38;4.35;;;;;;;8.02;93.65;102254.63;4996030;28;20232;-50
2023/05/29 02:09:00;;;;;;;16.33;3.63;;;;;;;7.89;93.70;102250.22;4994844;28;20196;-48
2023/05/29 02:11:28;;;;;;;18.45;3.85;;;;;;;7.70;94.02;102257.44;4997122;28;20201;-50
2023/05/29 02:13:54;;;;;;;17.58;3.80;;;;;;;7.71;94.79;102253.88;4997550;28;20182;-49
2023/05/29 02:16:20;;;;;;;14.98;3.13;;;;;;;7.83;94.99;102249.38;4994484;28;20205;-49
2023/05/29 02:18:47;;;;;;;21.92;3.65;;;;;;;7.88;94.80;102253.81;4997711;28;20226;-49
2023/05/29 02:21:13;;;;;;;18.70;4.28;;;;;;;7.87;95.06;102254.69;4997229;28;20196;-48
2023/05/29 02:23:38;;;;;;;16.40;3.97;;;;;;;7.91;95.25;102248.44;4995941;28;20188;-50
2023/05/29 02:26:04;;;;;;;20.75;3.42;;;;;;;7.83;95.35;102252.03;4993483;28;20213;-49
2023/05/29 02:28:30;;;;;;;21.25;4.45;;;;;;;7.82;95.36;102255.59;4982179;28;20226;-49
2023/05/29 02:30:56;;;;;;;18.63;3.80;;;;;;;7.77;95.50;102254.72;4997744;28;20211;-50
2023/05/29 02:33:21;;;;;;;14.77;3.28;;;;;;;7.78;95.92;102250.28;5000634;28;20264;-52
2023/05/29 02:35:47;;;;;;;15.52;3.75;;;;;;;7.69;95.86;102258.31;4998212;28;20303;-49
2023/05/29 02:38:12;;;;;;;19.17;3.83;;;;;;;7.46;96.23;102245.06;4998312;28;20338;-50
2023/05/29 02:40:40;;;;;;;17.52;4.10;;;;;;;7.48;96.82;102236.16;5000242;28;20546;-49
2023/05/29 02:43:06;;;;;;;16.35;3.65;;;;;;;7.69;97.34;102239.66;4996009;28;20176;-50
2023/05/29 02:45:32;;;;;;;20.33;3.78;;;;;;;7.74;97.30;102240.50;5000530;28;20212;-49
2023/05/29 02:47:57;;;;;;;11.85;3.20;;;;;;;7.67;97.52;102241.44;4998957;28;20616;-50
2023/05/29 02:50:23;;;;;;;19.70;4.13;;;;;;;7.77;97.20;102241.41;5000923;28;20640;-52
2023/05/29 02:52:48;;;;;;;15.27;3.58;;;;;;;7.75;96.92;102237.84;4999524;28;20818;-50
2023/05/29 02:55:15;;;;;;;17.08;3.83;;;;;;;7.75;97.21;102237.84;4998412;28;20216;-50
2023/05/29 02:57:41;;;;;;;18.73;3.67;;;;;;;7.48;97.57;102238.84;4999486;28;20179;-50
2023/05/29 03:02:45;;;;;;;18.15;3.90;;;;;;;7.58;98.51;102245.91;4995075;28;20651;-47
2023/05/29 03:05:10;;;;;;;22.85;3.78;;;;;;;7.56;98.78;102246.78;4984254;28;20225;-46
2023/05/29 03:07:36;;;;;;;22.38;3.90;;;;;;;7.50;98.74;102247.72;4979132;28;20236;-47
2023/05/29 03:10:04;;;;;;;22.85;4.35;;;;;;;7.40;99.09;102253.97;4976456;28;20205;-46
2023/05/29 03:12:29;;;;;;;14.32;4.20;;;;;;;7.41;99.57;102245.97;4975747;28;20213;-48
2023/05/29 03:14:56;;;;;;;22.25;3.78;;;;;;;7.54;99.80;102243.25;4979144;28;20201;-48
2023/05/29 03:17:21;;;;;;;13.80;3.40;;;;;;;7.47;99.55;102239.72;4978526;28;20754;-47
2023/05/29 03:19:47;;;;;;;17.55;3.67;;;;;;;7.53;99.54;102236.16;4979793;28;20302;-46
2023/05/29 03:22:13;;;;;;;18.88;3.30;;;;;;;7.62;100.00;102234.31;4979194;28;20201;-48
2023/05/29 03:24:39;;;;;;;18.00;3.72;;;;;;;7.42;100.00;102228.19;4978587;28;20209;-47
2023/05/29 03:27:05;;;;;;;15.40;3.78;;;;;;;7.51;100.00;102237.94;4961546;28;20198;-47
2023/05/29 03:29:32;;;;;;;23.38;4.28;;;;;;;7.39;100.00;102226.41;4981929;28;20343;-48
2023/05/29 03:31:59;;;;;;;16.33;3.90;;;;;;;7.40;100.00;102236.16;4979881;28;20213;-46
2023/05/29 03:34:29;;;;;;;21.33;3.88;;;;;;;7.49;100.00;102237.03;4988924;28;20276;-48
2023/05/29 03:36:56;;;;;;;21.45;4.50;;;;;;;7.52;100.00;102237.03;4979237;28;20697;-46
2023/05/29 03:39:23;;;;;;;20.00;3.92;;;;;;;7.61;100.00;102242.34;4980861;28;20194;-47
2023/05/29 03:41:49;;;;;;;21.65;4.05;;;;;;;7.49;100.00;102253.03;4977985;28;20187;-48
2023/05/29 03:44:15;;;;;;;19.98;3.83;;;;;;;7.55;100.00;102243.25;4981809;28;20185;-48
2023/05/29 03:46:41;;;;;;;24.30;4.47;;;;;;;7.71;100.00;102244.06;4983600;28;20364;-48
2023/05/29 03:49:07;;;;;;;19.88;4.38;;;;;;;7.57;100.00;102240.59;4964912;28;20194;-48
2023/05/29 03:51:35;;;;;;;21.73;4.22;;;;;;;7.68;100.00;102249.44;4984358;28;20268;-47
2023/05/29 03:54:01;;;;;;;25.73;4.47;;;;;;;7.63;100.00;102235.22;4978113;28;20569;-45
2023/05/29 03:56:26;;;;;;;17.05;3.85;;;;;;;7.46;100.00;102239.75;4978214;28;20205;-46
2023/05/29 03:58:52;;;;;;;16.50;3.60;;;;;;;7.63;100.00;102251.22;4981650;28;20504;-46
2023/05/29 04:01:19;;;;;;;20.92;4.18;;;;;;;7.57;100.00;102251.25;4979717;28;20225;-46
2023/05/29 04:03:46;;;;;;;21.35;4.82;;;;;;;7.61;100.00;102258.34;4983812;28;20227;-48
2023/05/29 04:06:12;;;;;;;20.13;3.80;;;;;;;7.62;100.00;102260.13;4965011;28;20205;-46
2023/05/29 04:08:38;;;;;;;19.20;3.58;;;;;;;7.90;100.00;102265.38;4980962;28;20191;-46
2023/05/29 04:11:04;;;;;;;18.23;3.63;;;;;;;7.69;100.00;102267.19;4982779;28;20289;-46
2023/05/29 04:13:30;;;;;;;20.50;3.63;;;;;;;7.91;100.00;102278.69;4980510;28;20308;-48
2023/05/29 04:15:55;;;;;;;15.95;3.35;;;;;;;7.87;100.00;102268.03;4983859;28;20206;-48
2023/05/29 04:18:21;;;;;;;24.83;4.63;;;;;;;7.87;100.00;102270.69;4980318;28;20451;-47
2023/05/29 04:20:47;;;;;;;17.70;3.60;;;;;;;7.93;100.00;102274.22;4982419;28;20178;-47
2023/05/29 04:23:13;;;;;;;22.73;4.53;;;;;;;7.95;100.00;102266.22;4978517;28;20288;-46
2023/05/29 04:25:39;;;;;;;19.02;4.40;;;;;;;8.00;100.00;102269.75;4982323;28;20194;-46
2023/05/29 04:28:06;;;;;;;21.02;4.20;;;;;;;8.11;100.00;102278.63;4982580;28;20204;-47
2023/05/29 04:30:33;;;;;;;14.90;4.00;;;;;;;7.96;100.00;102270.66;4984614;28;20641;-47
2023/05/29 04:32:59;;;;;;;20.38;4.15;;;;;;;7.87;100.00;102268.03;4981719;28;20189;-44
2023/05/29 04:35:28;;;;;;;19.90;3.90;;;;;;;7.98;100.00;102277.78;4980016;28;20552;-47
2023/05/29 04:37:57;;;;;;;23.67;3.80;;;;;;;8.03;100.00;102277.75;4977243;28;20244;-47
2023/05/29 04:40:26;;;;;;;18.75;3.95;;;;;;;7.99;100.00;102276.00;4978861;28;20181;-47
2023/05/29 04:42:52;;;;;;;17.98;4.50;;;;;;;8.07;100.00;102286.63;4978434;28;20193;-47
2023/05/29 04:45:22;;;;;;;25.70;4.43;;;;;;;7.99;100.00;102289.34;4981180;28;20248;-47
2023/05/29 04:47:49;;;;;;;24.92;4.38;;;;;;;8.03;100.00;102281.31;4993212;28;20186;-45
2023/05/29 04:50:17;;;;;;;24.70;4.38;;;;;;;7.98;100.00;102283.13;4981394;28;20230;-46
2023/05/29 04:52:43;;;;;;;19.23;4.03;;;;;;;8.13;100.00;102290.16;4970836;28;20652;-47
2023/05/29 04:55:10;;;;;;;17.60;4.10;;;;;;;8.20;99.74;102301.72;4977379;28;20679;-47
2023/05/29 04:57:36;;;;;;;23.67;4.28;;;;;;;8.38;98.96;102296.28;4987247;28;20177;-45
2023/05/29 05:00:08;;;;;;;22.30;4.38;;;;;;;8.20;98.84;102288.38;4980277;28;20184;-45
2023/05/29 05:02:36;;;;;;;23.35;4.32;;;;;;;8.44;99.00;102282.94;4978307;28;20193;-44
2023/05/29 05:05:02;;;;;;;18.85;4.38;;;;;;;8.52;98.49;102282.88;4977623;28;20189;-45
2023/05/29 05:07:27;;;;;;;26.45;4.57;;;;;;;8.55;98.08;102284.63;4984003;28;20656;-45
2023/05/29 05:09:53;;;;;;;29.40;4.63;;;;;;;8.35;97.39;102284.72;4978501;28;20702;-45
2023/05/29 05:12:22;;;;;;;26.23;4.13;;;;;;;8.53;97.34;102284.66;4987446;28;20337;-44
2023/05/29 05:14:48;;;;;;;26.13;5.47;;;;;;;8.65;97.08;102289.91;4961982;28;20292;-47
2023/05/29 05:17:14;;;;;;;19.38;4.30;;;;;;;8.58;96.66;102295.31;4982783;28;20193;-45
2023/05/29 05:19:40;;;;;;;20.85;4.30;;;;;;;8.81;96.25;102295.13;4982130;28;20189;-45
2023/05/29 05:22:06;;;;;;;19.20;4.55;;;;;;;8.88;96.07;102283.53;4977700;28;20738;-45
2023/05/29 05:24:32;;;;;;;19.90;4.80;;;;;;;8.97;95.96;102275.41;4986192;28;20205;-47
2023/05/29 05:26:57;;;;;;;21.50;4.65;;;;;;;9.06;95.65;102269.09;4985938;28;20788;-47
2023/05/29 05:29:23;;;;;;;17.08;4.45;;;;;;;9.07;95.12;102274.44;4983508;28;20189;-47
2023/05/29 05:31:48;;;;;;;18.15;4.20;;;;;;;9.01;94.37;102271.81;4980418;28;20224;-45
2023/05/29 05:34:14;;;;;;;28.05;4.82;;;;;;;9.22;94.18;102275.19;4987550;28;20208;-46
2023/05/29 05:36:42;;;;;;;15.55;4.10;;;;;;;9.18;93.93;102270.75;4974338;28;20189;-46
2023/05/29 05:39:12;;;;;;;17.05;3.72;;;;;;;9.12;93.39;102278.84;4978507;28;20181;-47
2023/05/29 05:41:38;;;;;;;20.88;4.70;;;;;;;9.12;93.30;102271.72;4979888;28;20256;-45
2023/05/29 05:44:04;;;;;;;24.77;4.32;;;;;;;9.48;93.08;102275.81;4980465;28;20668;-45
2023/05/29 05:46:49;;;;;;;19.30;4.45;;;;;;;9.39;92.87;102286.63;4989430;28;20197;-43
2023/05/29 05:49:15;;;;;;;26.27;4.72;;;;;;;9.44;92.95;102268.72;4979226;28;20645;-40
2023/05/29 05:51:42;;;;;;;18.65;4.63;;;;;;;9.57;92.70;102279.31;4970493;28;20705;-43
2023/05/29 05:54:08;;;;;;;23.90;4.57;;;;;;;9.31;93.04;102276.88;4970743;28;20178;-42
2023/05/29 05:56:33;;;;;;;21.40;4.03;;;;;;;9.28;92.90;102275.13;4974082;28;20574;-40
2023/05/29 05:58:59;;;;;;;25.77;5.57;;;;;;;9.17;93.15;102272.56;4991696;28;20169;-43
2023/05/29 06:01:25;;;;;;;28.60;5.15;;;;;;;9.43;93.43;102277.66;4975176;28;20246;-43
2023/05/29 06:03:50;;;;;;;28.98;5.57;;;;;;;9.47;93.14;102287.44;4970619;28;20174;-43
2023/05/29 06:06:17;;;;;;;17.52;4.25;;;;;;;9.98;92.99;102285.97;4977137;28;20635;-43
2023/05/29 06:08:45;;;;;;;25.60;4.85;;;;;;;10.23;92.62;102290.13;4971016;28;20221;-43
2023/05/29 06:11:11;;;;;;;21.17;5.47;;;;;;;10.33;91.40;102282.88;4970767;28;20198;-42
2023/05/29 06:13:38;;;;;;;24.55;5.43;;;;;;;10.33;91.02;102282.00;4970707;28;20216;-44
2023/05/29 06:16:11;;;;;;;23.05;4.68;;;;;;;10.82;90.21;102286.59;4970389;28;20196;-43
2023/05/29 06:18:37;;;;;;;25.52;5.75;;;;;;;11.26;87.77;102271.56;4970588;28;20182;-43
2023/05/29 06:21:03;;;;;;;21.05;4.75;;;;;;;11.41;86.34;102260.53;4970466;28;20177;-42
2023/05/29 06:23:30;;;;;;;24.58;5.20;;;;;;;11.59;85.25;102266.47;4970475;28;20645;-45
2023/05/29 06:25:55;;;;;;;20.67;4.60;;;;;;;11.07;84.48;102279.94;4970439;28;20205;-45
2023/05/29 06:28:21;;;;;;;23.63;4.95;;;;;;;11.54;84.35;102269.25;4985210;28;20185;-44
2023/05/29 06:30:48;;;;;;;22.17;5.55;;;;;;;12.09;83.05;102283.38;4970462;28;20210;-44
2023/05/29 06:33:16;;;;;;;27.90;5.15;;;;;;;11.99;81.97;102277.34;4970476;28;20170;-44
2023/05/29 06:35:41;;;;;;;24.48;5.03;;;;;;;11.37;81.05;102263.31;4970872;28;20208;-42
2023/05/29 06:38:07;;;;;;;24.90;5.55;;;;;;;11.81;81.00;102264.28;4989890;28;20257;-41
2023/05/29 06:40:33;;;;;;;22.83;5.00;;;;;;;11.28;81.91;102261.69;4973639;28;20645;-43
2023/05/29 06:42:58;;;;;;;24.92;4.57;;;;;;;11.16;82.16;102278.88;4970188;28;20189;-43
2023/05/29 06:45:38;;;;;;;23.75;5.32;;;;;;;11.52;82.09;102273.75;4971621;28;20198;-42
2023/05/29 06:48:04;;;;;;;22.35;4.20;;;;;;;12.46;81.64;102272.75;4970097;28;20189;-45
2023/05/29 06:50:30;;;;;;;19.50;4.93;;;;;;;13.32;80.16;102264.38;4970217;28;20181;-44
2023/05/29 06:53:03;;;;;;;18.17;4.25;;;;;;;12.66;78.51;102257.91;4970039;28;20190;-43
2023/05/29 06:55:47;;;;;;;22.17;4.72;;;;;;;11.87;78.55;102258.75;4971400;28;20205;-44
2023/05/29 06:58:14;;;;;;;24.85;4.60;;;;;;;12.09;78.85;102261.91;4971529;28;20633;-44
2023/05/29 07:00:39;;;;;;;17.98;4.03;;;;;;;12.93;79.14;102264.44;4971415;28;20185;-42
2023/05/29 07:03:20;;;;;;;20.05;4.93;;;;;;;12.63;76.91;102256.19;4971889;28;20193;-43
2023/05/29 07:05:47;;;;;;;24.00;5.13;;;;;;;12.77;77.42;102254.06;4979136;28;20300;-42
2023/05/29 07:08:13;;;;;;;23.13;5.13;;;;;;;12.49;76.42;102263.72;4984914;28;20592;-42
2023/05/29 07:10:38;;;;;;;20.02;5.35;;;;;;;12.95;76.68;102257.22;4976896;28;20185;-44
2023/05/29 07:13:06;;;;;;;20.83;4.38;;;;;;;13.11;75.17;102260.41;4993083;28;20178;-41
2023/05/29 07:15:32;;;;;;;20.38;4.50;;;;;;;13.22;75.10;102250.22;4992986;28;20185;-43
2023/05/29 07:17:57;;;;;;;15.18;4.00;;;;;;;12.95;74.51;102258.09;4993105;28;20200;-42
2023/05/29 07:20:25;;;;;;;25.52;4.43;;;;;;;12.91;73.92;102258.22;4993219;28;20230;-41
2023/05/29 07:22:52;;;;;;;17.10;4.35;;;;;;;12.77;74.24;102256.75;4993264;28;20216;-42
2023/05/29 07:25:17;;;;;;;18.30;3.58;;;;;;;13.51;74.25;102268.34;4992888;28;20193;-43
2023/05/29 07:27:43;;;;;;;20.77;5.05;;;;;;;14.04;73.78;102262.34;4993062;28;20176;-43
2023/05/29 07:30:10;;;;;;;17.90;4.10;;;;;;;14.01;72.17;102244.44;4993170;28;20185;-45
2023/05/29 07:32:36;;;;;;;19.60;5.05;;;;;;;14.30;70.60;102245.38;4982567;28;20637;-41
2023/05/29 07:35:01;;;;;;;20.08;4.80;;;;;;;14.14;70.52;102239.53;4973376;28;20192;-42
2023/05/29 07:37:29;;;;;;;17.85;4.25;;;;;;;14.05;70.19;102241.66;4957327;28;20185;-43
2023/05/29 07:39:56;;;;;;;20.85;4.68;;;;;;;14.48;70.36;102253.81;4972552;28;20585;-41
2023/05/29 07:42:50;;;;;;;14.88;3.80;;;;;;;14.19;69.85;102247.50;4972283;28;20562;-40
2023/05/29 07:45:17;;;;;;;16.58;4.22;;;;;;;13.78;70.23;102246.94;4972547;28;20202;-42
2023/05/29 07:47:42;;;;;;;20.73;4.60;;;;;;;14.94;70.22;102255.03;4988430;28;20574;-42
2023/05/29 07:50:10;;;;;;;17.65;5.13;;;;;;;14.99;68.69;102236.88;4991414;28;20231;-42
2023/05/29 07:52:36;;;;;;;18.90;4.10;;;;;;;15.25;67.87;102227.84;4991801;28;20588;-44
2023/05/29 07:55:01;;;;;;;19.85;4.07;;;;;;;15.54;66.72;102220.53;4993377;28;20205;-44
2023/05/29 07:57:28;;;;;;;17.98;4.32;;;;;;;15.58;65.41;102214.06;4991666;28;20173;-41
2023/05/29 07:59:56;;;;;;;13.70;3.40;;;;;;;15.86;64.22;102206.72;4991583;28;20256;-44
2023/05/29 08:02:23;;;;;;;15.35;4.22;;;;;;;14.25;64.57;102214.97;4989869;28;20185;-42
2023/05/29 08:05:20;;;;;;;15.90;3.95;;;;;;;14.33;66.18;102228.22;4973732;28;20352;-42
2023/05/29 08:07:48;;;;;;;17.33;4.32;;;;;;;14.61;66.94;102237.22;4973898;28;20252;-39
2023/05/29 08:10:13;;;;;;;15.13;4.15;;;;;;;14.88;66.43;102233.66;4973765;28;20265;-43
2023/05/29 08:12:39;;;;;;;17.05;3.63;;;;;;;15.00;66.25;102231.41;4973587;28;20579;-44
2023/05/29 08:15:05;;;;;;;14.88;3.70;;;;;;;15.81;65.41;102222.22;4972043;28;20692;-43
2023/05/29 08:17:31;;;;;;;12.40;3.53;;;;;;;15.39;64.14;102205.75;4972305;28;20587;-43
2023/05/29 08:19:56;;;;;;;11.75;3.35;;;;;;;15.66;63.40;102210.13;4973354;28;20205;-42
2023/05/29 08:22:28;;;;;;;13.82;3.50;;;;;;;15.78;62.67;102205.25;4973659;28;20172;-42
2023/05/29 08:24:54;;;;;;;14.90;3.92;;;;;;;16.05;61.83;102198.78;4985841;28;20189;-44
2023/05/29 08:27:19;;;;;;;14.90;3.65;;;;;;;16.14;61.72;102193.97;4993278;28;20173;-44
2023/05/29 08:29:45;;;;;;;13.02;3.97;;;;;;;15.97;61.63;102186.50;4977948;28;20217;-45
2023/05/29 08:32:11;;;;;;;13.70;3.90;;;;;;;15.04;61.46;102186.28;4975963;28;20276;-46
2023/05/29 08:34:36;;;;;;;15.02;3.85;;;;;;;15.23;62.00;102198.19;4978096;28;20559;-44
2023/05/29 08:37:02;;;;;;;12.73;3.25;;;;;;;16.02;61.41;102211.53;4982949;28;20659;-46
2023/05/29 08:39:28;;;;;;;11.85;3.60;;;;;;;15.47;61.23;102200.94;4978532;28;20182;-43
2023/05/29 08:41:59;;;;;;;13.75;3.35;;;;;;;15.67;61.33;102205.59;4988241;28;20169;-44
2023/05/29 08:44:29;;;;;;;14.15;3.35;;;;;;;15.62;61.45;102196.81;4991152;28;20170;-44
2023/05/29 08:46:55;;;;;;;16.05;3.80;;;;;;;15.27;61.97;102220.59;4973289;28;20178;-42
2023/05/29 08:49:22;;;;;;;12.23;3.63;;;;;;;15.19;62.36;102219.97;4986410;28;20182;-42
2023/05/29 08:51:55;;;;;;;10.90;3.38;;;;;;;15.78;62.55;102226.84;4991153;28;20202;-42
2023/05/29 08:54:22;;;;;;;12.05;3.65;;;;;;;16.01;61.14;102207.94;4992321;28;20558;-43
2023/05/29 08:56:47;;;;;;;12.73;3.50;;;;;;;16.01;60.54;102202.53;4992430;28;20197;-43
2023/05/29 08:59:14;;;;;;;12.77;3.25;;;;;;;16.58;59.49;102196.69;4992401;28;20304;-42
2023/05/29 09:01:40;;;;;;;12.05;2.85;;;;;;;16.36;58.54;102180.44;5033905;22;20219;-47
2023/05/29 09:04:05;;;;;;;12.15;3.72;;;;;;;16.87;57.93;102173.81;5050037;28;20187;-47
2023/05/29 09:06:31;;;;;;;12.60;3.47;;;;;;;17.49;57.51;102178.28;5031340;28;20203;-47
2023/05/29 09:08:57;;;;;;;16.23;3.47;;;;;;;16.75;56.25;102156.25;5037692;28;20267;-47
2023/05/29 09:11:23;;;;;;;14.50;3.63;;;;;;;16.62;57.35;102158.59;5039848;28;20278;-47
2023/05/29 09:13:49;;;;;;;10.27;3.17;;;;;;;16.97;57.40;102179.72;5033235;28;20210;-46
2023/05/29 09:16:18;;;;;;;9.68;3.05;;;;;;;17.34;57.71;102187.09;5032654;28;20218;-47
2023/05/29 09:18:45;;;;;;;13.63;3.28;;;;;;;17.09;56.10;102166.50;5032359;28;20180;-49
2023/05/29 09:21:26;;;;;;;12.02;3.33;;;;;;;17.65;55.93;102173.00;5034536;28;20591;-47
2023/05/29 09:23:52;;;;;;;11.10;2.97;;;;;;;17.79;55.72;102174.19;5039464;28;20204;-48
2023/05/29 09:26:17;;;;;;;8.75;2.85;;;;;;;18.03;55.21;102170.34;5035529;28;20207;-49
2023/05/29 09:28:45;;;;;;;10.25;2.75;;;;;;;16.94;54.10;102156.34;5033660;28;20258;-46
2023/05/29 09:31:21;;;;;;;9.70;3.13;;;;;;;16.44;54.11;102141.31;5036978;28;20587;-46
2023/05/29 09:33:50;;;;;;;9.05;3.03;;;;;;;17.43;54.30;102165.00;5032656;28;20191;-47
2023/05/29 09:36:22;;;;;;;14.90;3.90;;;;;;;15.74;57.98;102180.19;5029503;28;20286;-47
2023/05/29 09:38:48;;;;;;;9.23;3.03;;;;;;;16.09;59.82;102209.47;5031405;28;20190;-47
2023/05/29 09:41:22;;;;;;;12.77;3.95;;;;;;;16.31;59.61;102221.22;5031635;28;20571;-47
2023/05/29 09:43:49;;;;;;;14.23;3.83;;;;;;;16.04;59.57;102206.94;5032780;28;20654;-47
2023/05/29 09:46:19;;;;;;;18.80;3.30;;;;;;;16.24;59.27;102206.16;5031837;28;20204;-47
2023/05/29 09:48:45;;;;;;;13.35;3.00;;;;;;;15.91;59.70;102209.22;5031248;28;20186;-48
2023/05/29 09:51:24;;;;;;;14.90;3.67;;;;;;;15.57;60.79;102217.72;5031201;28;20682;-45
2023/05/29 09:53:53;;;;;;;21.25;4.43;;;;;;;16.17;60.91;102219.03;5035093;28;20206;-47
2023/05/29 09:56:24;;;;;;;11.05;3.22;;;;;;;15.90;60.43;102223.69;5030695;28;20203;-47
2023/05/29 09:58:51;;;;;;;16.75;3.20;;;;;;;15.75;60.62;102216.19;5031284;28;20184;-48
2023/05/29 10:01:17;;;;;;;15.73;3.75;;;;;;;15.84;60.62;102202.31;5030690;28;20250;-47
2023/05/29 10:03:43;;;;;;;14.63;3.65;;;;;;;15.86;61.02;102225.63;5030173;28;20179;-53
2023/05/29 10:06:13;;;;;;;14.60;3.20;;;;;;;15.74;61.00;102212.59;5036373;28;20231;-46
2023/05/29 10:08:49;;;;;;;12.43;3.30;;;;;;;15.89;60.16;102210.25;5033291;28;20199;-46
2023/05/29 10:11:21;;;;;;;9.55;2.75;;;;;;;15.78;60.24;102206.13;5035957;28;20337;-48
2023/05/29 10:13:49;;;;;;;12.35;3.22;;;;;;;15.60;60.37;102226.56;5036117;28;20175;-48
2023/05/29 10:16:15;;;;;;;12.32;2.70;;;;;;;15.99;59.02;102204.41;5033760;28;20289;-47
2023/05/29 10:18:49;;;;;;;10.32;3.30;;;;;;;16.31;59.03;102210.38;5030122;28;20357;-47
2023/05/29 10:21:16;;;;;;;10.77;2.53;;;;;;;16.20;58.03;102194.59;5035343;28;20172;-47
2023/05/29 10:23:46;;;;;;;10.63;2.40;;;;;;;15.97;57.39;102181.97;5028961;28;20184;-46
2023/05/29 10:26:34;;;;;;;11.73;3.47;;;;;;;15.92;57.80;102183.06;5040816;28;20198;-47
2023/05/29 10:29:22;;;;;;;10.40;2.55;;;;;;;15.95;57.92;102181.16;5034155;28;20180;-47
2023/05/29 10:32:06;;;;;;;9.20;2.50;;;;;;;16.19;57.78;102190.09;5032652;28;20204;-47
2023/05/29 10:34:53;;;;;;;10.95;3.47;;;;;;;15.92;57.43;102180.38;5031960;28;20203;-47
2023/05/29 10:37:42;;;;;;;9.93;2.42;;;;;;;16.38;58.16;102187.56;5029671;28;20294;-48
2023/05/29 10:40:12;;;;;;;7.53;2.53;;;;;;;16.04;57.46;102179.91;5037096;28;20253;-47
2023/05/29 10:42:43;;;;;;;10.63;2.80;;;;;;;15.91;56.89;102174.09;5034046;28;20187;-45
2023/05/29 10:45:09;;;;;;;8.57;2.78;;;;;;;15.68;57.23;102174.06;5031882;28;20689;-46
2023/05/29 10:47:34;;;;;;;9.73;2.92;;;;;;;15.90;56.82;102172.34;5033171;28;20209;-48
2023/05/29 10:50:01;;;;;;;13.13;2.78;;;;;;;15.72;56.00;102163.16;5030038;28;20175;-46
2023/05/29 10:52:33;;;;;;;8.63;2.83;;;;;;;15.85;56.00;102161.72;5029090;28;20208;-46
2023/05/29 10:55:00;;;;;;;10.07;2.38;;;;;;;15.68;56.16;102165.97;5034404;28;20218;-46
2023/05/29 10:57:28;;;;;;;8.60;2.63;;;;;;;16.48;56.01;102164.56;5032014;28;20306;-47
2023/05/29 11:00:05;;;;;;;6.78;2.70;;;;;;;16.38;55.52;102152.38;5033999;28;20631;-46
2023/05/29 11:02:31;;;;;;;7.28;2.40;;;;;;;15.87;54.44;102142.72;5035420;28;20190;-48
2023/05/29 11:05:26;;;;;;;8.07;2.35;;;;;;;15.99;54.99;102152.19;5031981;28;20195;-48
2023/05/29 11:07:57;;;;;;;14.77;3.15;;;;;;;16.34;55.23;102152.59;5030384;28;20269;-47
2023/05/29 11:10:45;;;;;;;11.68;2.55;;;;;;;16.07;55.19;102144.66;5028874;28;20216;-47
2023/05/29 11:13:23;;;;;;;8.93;3.28;;;;;;;16.06;55.54;102157.28;5027910;28;20555;-47
2023/05/29 11:16:22;;;;;;;11.38;2.80;;;;;;;16.35;55.88;102157.91;5033771;28;20245;-46
2023/05/29 11:18:48;;;;;;;7.43;2.60;;;;;;;16.41;55.05;102156.78;5031732;28;20702;-46
2023/05/29 11:21:29;;;;;;;7.07;2.63;;;;;;;16.25;54.39;102148.44;5028121;28;20180;-47
2023/05/29 11:24:07;;;;;;;9.98;2.30;;;;;;;16.15;54.36;102138.91;5029010;28;20211;-46
2023/05/29 11:26:36;;;;;;;9.82;2.65;;;;;;;16.25;54.51;102152.00;5026990;28;20191;-46
2023/05/29 11:29:06;;;;;;;12.18;3.05;;;;;;;16.34;55.06;102152.59;5032343;28;20202;-45